Terminal Aerodrome Forecast
Issued by NWS

Home | Current Version | Previous Version | Text Only | Print | Product List | Glossary On
Versions: 1 2 3 4 5 6 7 8 9 10 11 12 13 14 15 16 17 18 19 20 21 22 23 24 25 26
000
FTUS45 KBOI 101130
TAFBKE
TAF
KBKE 101130Z 1012/1112 VRB03KT P6SM FEW200
      TEMPO 1012/1013 00000KT 1SM MIFG
     FM102100 31010KT P6SM FEW200
     FM110500 VRB05KT P6SM SKC=

USA.gov is the U.S. government's official web portal to all federal, state and local government web resources and services.